sensor_id;sensor_type;location;lat;lon;timestamp;pressure;altitude;pressure_sealevel;temperature;humidity
20019;BME280;10170;42.502;26.526;2023-07-13T00:01:49;99785.09;;;22.45;100.00
20019;BME280;10170;42.502;26.526;2023-07-13T00:04:18;99784.75;;;22.52;100.00
20019;BME280;10170;42.502;26.526;2023-07-13T00:06:46;99795.34;;;22.58;100.00
20019;BME280;10170;42.502;26.526;2023-07-13T00:09:14;99794.75;;;22.66;100.00
20019;BME280;10170;42.502;26.526;2023-07-13T00:11:43;99794.66;;;22.81;100.00
20019;BME280;10170;42.502;26.526;2023-07-13T00:14:11;99787.00;;;22.88;100.00
20019;BME280;10170;42.502;26.526;2023-07-13T00:16:39;99792.63;;;22.97;100.00
20019;BME280;10170;42.502;26.526;2023-07-13T00:19:07;99782.63;;;22.92;100.00
20019;BME280;10170;42.502;26.526;2023-07-13T00:21:34;99781.78;;;22.97;100.00
20019;BME280;10170;42.502;26.526;2023-07-13T00:24:01;99787.09;;;23.07;100.00
20019;BME280;10170;42.502;26.526;2023-07-13T00:26:29;99700.81;;;22.80;100.00
20019;BME280;10170;42.502;26.526;2023-07-13T00:28:56;99782.09;;;23.24;100.00
20019;BME280;10170;42.502;26.526;2023-07-13T00:31:23;99783.94;;;23.34;100.00
20019;BME280;10170;42.502;26.526;2023-07-13T00:33:50;99777.41;;;23.35;100.00
20019;BME280;10170;42.502;26.526;2023-07-13T00:36:17;99777.66;;;23.38;100.00
20019;BME280;10170;42.502;26.526;2023-07-13T00:38:44;99775.56;;;23.54;100.00
20019;BME280;10170;42.502;26.526;2023-07-13T00:41:11;99766.72;;;23.48;100.00
20019;BME280;10170;42.502;26.526;2023-07-13T00:43:38;99772.56;;;23.32;100.00
20019;BME280;10170;42.502;26.526;2023-07-13T00:46:34;99775.97;;;23.42;100.00
20019;BME280;10170;42.502;26.526;2023-07-13T00:49:06;99757.81;;;23.43;100.00
20019;BME280;10170;42.502;26.526;2023-07-13T00:52:28;99770.63;;;23.32;100.00
20019;BME280;10170;42.502;26.526;2023-07-13T00:54:47;99766.66;;;23.20;100.00
20019;BME280;10170;42.502;26.526;2023-07-13T00:57:19;99768.41;;;23.06;100.00
20019;BME280;10170;42.502;26.526;2023-07-13T00:59:56;99760.63;;;23.28;100.00
20019;BME280;10170;42.502;26.526;2023-07-13T01:02:24;99758.56;;;23.15;100.00
20019;BME280;10170;42.502;26.526;2023-07-13T01:04:52;99755.38;;;23.08;100.00
20019;BME280;10170;42.502;26.526;2023-07-13T01:07:19;99762.81;;;23.26;100.00
20019;BME280;10170;42.502;26.526;2023-07-13T01:09:45;99760.44;;;23.19;100.00
20019;BME280;10170;42.502;26.526;2023-07-13T01:12:12;99740.50;;;23.00;100.00
20019;BME280;10170;42.502;26.526;2023-07-13T01:14:40;99757.00;;;23.09;100.00
20019;BME280;10170;42.502;26.526;2023-07-13T01:17:10;99755.56;;;22.82;100.00
20019;BME280;10170;42.502;26.526;2023-07-13T01:19:39;99759.09;;;22.39;100.00
20019;BME280;10170;42.502;26.526;2023-07-13T01:22:09;99761.16;;;22.14;100.00
20019;BME280;10170;42.502;26.526;2023-07-13T01:24:40;99754.69;;;21.99;100.00
20019;BME280;10170;42.502;26.526;2023-07-13T01:27:07;99747.44;;;21.90;100.00
20019;BME280;10170;42.502;26.526;2023-07-13T01:29:36;99753.69;;;21.80;100.00
20019;BME280;10170;42.502;26.526;2023-07-13T01:32:18;99758.81;;;21.77;100.00
20019;BME280;10170;42.502;26.526;2023-07-13T01:34:53;99751.81;;;21.81;100.00
20019;BME280;10170;42.502;26.526;2023-07-13T01:37:24;99745.31;;;21.62;100.00
20019;BME280;10170;42.502;26.526;2023-07-13T01:39:52;99740.44;;;21.64;100.00
20019;BME280;10170;42.502;26.526;2023-07-13T01:42:19;99739.72;;;21.38;100.00
20019;BME280;10170;42.502;26.526;2023-07-13T01:44:45;99744.84;;;21.40;100.00
20019;BME280;10170;42.502;26.526;2023-07-13T01:47:12;99741.91;;;21.31;100.00
20019;BME280;10170;42.502;26.526;2023-07-13T01:49:39;99751.91;;;21.31;100.00
20019;BME280;10170;42.502;26.526;2023-07-13T01:52:06;99734.88;;;21.20;100.00
20019;BME280;10170;42.502;26.526;2023-07-13T01:54:33;99730.81;;;21.18;100.00
20019;BME280;10170;42.502;26.526;2023-07-13T01:57:00;99746.22;;;21.27;100.00
20019;BME280;10170;42.502;26.526;2023-07-13T01:59:27;99747.00;;;21.38;100.00
20019;BME280;10170;42.502;26.526;2023-07-13T02:01:54;99749.97;;;21.41;100.00
20019;BME280;10170;42.502;26.526;2023-07-13T02:04:21;99723.50;;;21.23;100.00
20019;BME280;10170;42.502;26.526;2023-07-13T02:06:47;99748.56;;;21.59;100.00
20019;BME280;10170;42.502;26.526;2023-07-13T02:09:14;99739.19;;;21.21;100.00
20019;BME280;10170;42.502;26.526;2023-07-13T02:11:41;99756.75;;;21.34;100.00
20019;BME280;10170;42.502;26.526;2023-07-13T02:14:08;99752.72;;;21.21;100.00
20019;BME280;10170;42.502;26.526;2023-07-13T02:16:35;99751.63;;;21.12;100.00
20019;BME280;10170;42.502;26.526;2023-07-13T02:19:02;99743.25;;;21.14;100.00
20019;BME280;10170;42.502;26.526;2023-07-13T02:21:28;99740.03;;;21.17;100.00
20019;BME280;10170;42.502;26.526;2023-07-13T02:23:55;99745.13;;;21.23;100.00
20019;BME280;10170;42.502;26.526;2023-07-13T02:26:24;99734.09;;;21.10;100.00
20019;BME280;10170;42.502;26.526;2023-07-13T02:28:51;99749.47;;;21.19;100.00
20019;BME280;10170;42.502;26.526;2023-07-13T02:31:18;99738.13;;;21.12;100.00
20019;BME280;10170;42.502;26.526;2023-07-13T02:33:45;99749.47;;;21.19;100.00
20019;BME280;10170;42.502;26.526;2023-07-13T02:36:12;99751.91;;;21.16;100.00
20019;BME280;10170;42.502;26.526;2023-07-13T02:38:40;99748.41;;;21.20;100.00
20019;BME280;10170;42.502;26.526;2023-07-13T02:41:07;99762.44;;;21.17;100.00
20019;BME280;10170;42.502;26.526;2023-07-13T02:43:36;99761.13;;;21.15;100.00
20019;BME280;10170;42.502;26.526;2023-07-13T02:46:03;99744.88;;;21.05;100.00
20019;BME280;10170;42.502;26.526;2023-07-13T02:48:37;99754.34;;;21.02;100.00
20019;BME280;10170;42.502;26.526;2023-07-13T02:51:05;99755.97;;;21.03;100.00
20019;BME280;10170;42.502;26.526;2023-07-13T02:53:32;99751.88;;;20.90;100.00
20019;BME280;10170;42.502;26.526;2023-07-13T02:55:59;99736.50;;;20.81;100.00
20019;BME280;10170;42.502;26.526;2023-07-13T02:58:26;99740.00;;;20.91;100.00
20019;BME280;10170;42.502;26.526;2023-07-13T03:00:53;99751.09;;;20.95;100.00
20019;BME280;10170;42.502;26.526;2023-07-13T03:03:20;99743.81;;;21.01;100.00
20019;BME280;10170;42.502;26.526;2023-07-13T03:05:47;99744.38;;;21.03;100.00
20019;BME280;10170;42.502;26.526;2023-07-13T03:08:17;99745.44;;;21.02;100.00
20019;BME280;10170;42.502;26.526;2023-07-13T03:10:44;99736.50;;;21.01;100.00
20019;BME280;10170;42.502;26.526;2023-07-13T03:13:11;99731.91;;;21.17;100.00
20019;BME280;10170;42.502;26.526;2023-07-13T03:15:38;99737.59;;;21.15;100.00
20019;BME280;10170;42.502;26.526;2023-07-13T03:18:05;99735.13;;;21.14;100.00
20019;BME280;10170;42.502;26.526;2023-07-13T03:20:33;99744.31;;;21.23;100.00
20019;BME280;10170;42.502;26.526;2023-07-13T03:25:27;99740.28;;;21.20;100.00
20019;BME280;10170;42.502;26.526;2023-07-13T03:27:53;99773.00;;;21.44;100.00
20019;BME280;10170;42.502;26.526;2023-07-13T03:30:20;99763.22;;;21.48;100.00
20019;BME280;10170;42.502;26.526;2023-07-13T03:32:47;99761.84;;;21.60;100.00
20019;BME280;10170;42.502;26.526;2023-07-13T03:35:14;99775.63;;;21.64;100.00
20019;BME280;10170;42.502;26.526;2023-07-13T03:37:40;99767.00;;;21.57;100.00
20019;BME280;10170;42.502;26.526;2023-07-13T03:40:10;99777.28;;;21.65;100.00
20019;BME280;10170;42.502;26.526;2023-07-13T03:42:37;99780.50;;;21.72;100.00
20019;BME280;10170;42.502;26.526;2023-07-13T03:45:04;99772.38;;;21.72;100.00
20019;BME280;10170;42.502;26.526;2023-07-13T03:47:31;99779.88;;;22.00;100.00
20019;BME280;10170;42.502;26.526;2023-07-13T03:49:58;99775.16;;;22.26;100.00
20019;BME280;10170;42.502;26.526;2023-07-13T03:52:24;99783.50;;;22.34;100.00
20019;BME280;10170;42.502;26.526;2023-07-13T03:54:51;99777.53;;;22.37;100.00
20019;BME280;10170;42.502;26.526;2023-07-13T03:57:18;99779.34;;;22.52;100.00
20019;BME280;10170;42.502;26.526;2023-07-13T03:59:45;99779.94;;;22.44;100.00
20019;BME280;10170;42.502;26.526;2023-07-13T04:02:12;99778.06;;;22.44;100.00
20019;BME280;10170;42.502;26.526;2023-07-13T04:04:39;99775.84;;;22.46;100.00
20019;BME280;10170;42.502;26.526;2023-07-13T04:07:07;99772.09;;;22.37;100.00
20019;BME280;10170;42.502;26.526;2023-07-13T04:09:35;99758.06;;;22.35;100.00
20019;BME280;10170;42.502;26.526;2023-07-13T04:12:02;99784.88;;;22.85;100.00
20019;BME280;10170;42.502;26.526;2023-07-13T04:14:29;99785.91;;;22.89;100.00
20019;BME280;10170;42.502;26.526;2023-07-13T04:16:56;99783.13;;;22.99;100.00
20019;BME280;10170;42.502;26.526;2023-07-13T04:19:24;99779.88;;;22.97;100.00
20019;BME280;10170;42.502;26.526;2023-07-13T04:21:50;99791.69;;;23.12;100.00
20019;BME280;10170;42.502;26.526;2023-07-13T04:24:17;99789.41;;;23.24;100.00
20019;BME280;10170;42.502;26.526;2023-07-13T04:26:44;99777.19;;;23.26;100.00
20019;BME280;10170;42.502;26.526;2023-07-13T04:29:10;99791.94;;;23.49;100.00
20019;BME280;10170;42.502;26.526;2023-07-13T04:31:37;99792.41;;;23.56;100.00
20019;BME280;10170;42.502;26.526;2023-07-13T04:34:04;99793.84;;;23.72;100.00
20019;BME280;10170;42.502;26.526;2023-07-13T04:36:32;99785.13;;;24.04;100.00
20019;BME280;10170;42.502;26.526;2023-07-13T04:38:59;99791.69;;;24.40;100.00
20019;BME280;10170;42.502;26.526;2023-07-13T04:41:26;99809.78;;;24.49;100.00
20019;BME280;10170;42.502;26.526;2023-07-13T04:43:52;99798.44;;;24.24;100.00
20019;BME280;10170;42.502;26.526;2023-07-13T04:46:22;99796.75;;;24.70;100.00
20019;BME280;10170;42.502;26.526;2023-07-13T04:48:49;99802.69;;;24.90;100.00
20019;BME280;10170;42.502;26.526;2023-07-13T04:51:17;99809.38;;;24.79;100.00
20019;BME280;10170;42.502;26.526;2023-07-13T04:53:44;99801.44;;;24.64;100.00
20019;BME280;10170;42.502;26.526;2023-07-13T04:56:11;99809.91;;;24.81;100.00
20019;BME280;10170;42.502;26.526;2023-07-13T04:58:38;99795.72;;;24.84;100.00
20019;BME280;10170;42.502;26.526;2023-07-13T05:01:07;99798.50;;;24.79;100.00
20019;BME280;10170;42.502;26.526;2023-07-13T05:03:35;99800.47;;;24.92;100.00
20019;BME280;10170;42.502;26.526;2023-07-13T05:06:05;99813.78;;;25.13;100.00
20019;BME280;10170;42.502;26.526;2023-07-13T05:08:32;99803.59;;;25.18;100.00
20019;BME280;10170;42.502;26.526;2023-07-13T05:11:00;99809.28;;;25.03;100.00
20019;BME280;10170;42.502;26.526;2023-07-13T05:13:27;99809.56;;;25.20;100.00
20019;BME280;10170;42.502;26.526;2023-07-13T05:15:58;99818.94;;;25.46;100.00
20019;BME280;10170;42.502;26.526;2023-07-13T05:18:26;99811.78;;;25.50;100.00
20019;BME280;10170;42.502;26.526;2023-07-13T05:21:08;99825.44;;;25.64;100.00
20019;BME280;10170;42.502;26.526;2023-07-13T05:23:36;99824.53;;;25.68;100.00
20019;BME280;10170;42.502;26.526;2023-07-13T05:26:04;99826.13;;;25.56;100.00
20019;BME280;10170;42.502;26.526;2023-07-13T05:28:35;99824.13;;;25.75;100.00
20019;BME280;10170;42.502;26.526;2023-07-13T05:31:03;99810.63;;;25.70;100.00
20019;BME280;10170;42.502;26.526;2023-07-13T05:33:31;99812.16;;;25.89;100.00
20019;BME280;10170;42.502;26.526;2023-07-13T05:35:57;99809.84;;;26.10;100.00
20019;BME280;10170;42.502;26.526;2023-07-13T05:38:24;99826.50;;;26.09;100.00
20019;BME280;10170;42.502;26.526;2023-07-13T05:40:53;99821.38;;;26.21;100.00
20019;BME280;10170;42.502;26.526;2023-07-13T05:43:20;99822.44;;;26.47;100.00
20019;BME280;10170;42.502;26.526;2023-07-13T05:45:47;99822.91;;;26.76;100.00
20019;BME280;10170;42.502;26.526;2023-07-13T05:48:15;99827.06;;;26.60;100.00
20019;BME280;10170;42.502;26.526;2023-07-13T05:50:42;99810.22;;;26.93;100.00
20019;BME280;10170;42.502;26.526;2023-07-13T05:53:08;99827.22;;;26.90;100.00
20019;BME280;10170;42.502;26.526;2023-07-13T05:55:35;99820.78;;;26.73;100.00
20019;BME280;10170;42.502;26.526;2023-07-13T05:58:02;99834.84;;;27.02;100.00
20019;BME280;10170;42.502;26.526;2023-07-13T06:00:29;99830.56;;;27.10;100.00
20019;BME280;10170;42.502;26.526;2023-07-13T06:02:56;99821.94;;;27.16;100.00
20019;BME280;10170;42.502;26.526;2023-07-13T06:05:23;99827.63;;;27.42;100.00
20019;BME280;10170;42.502;26.526;2023-07-13T06:07:50;99815.53;;;27.65;100.00
20019;BME280;10170;42.502;26.526;2023-07-13T06:10:17;99819.09;;;27.43;100.00
20019;BME280;10170;42.502;26.526;2023-07-13T06:12:43;99819.41;;;27.42;100.00
20019;BME280;10170;42.502;26.526;2023-07-13T06:15:11;99809.16;;;27.47;100.00
20019;BME280;10170;42.502;26.526;2023-07-13T06:17:38;99811.72;;;27.74;100.00
20019;BME280;10170;42.502;26.526;2023-07-13T06:20:05;99820.72;;;28.05;100.00
20019;BME280;10170;42.502;26.526;2023-07-13T06:22:32;99806.28;;;28.14;100.00
20019;BME280;10170;42.502;26.526;2023-07-13T06:24:59;99805.84;;;28.37;100.00
20019;BME280;10170;42.502;26.526;2023-07-13T06:27:26;99810.50;;;28.37;100.00
20019;BME280;10170;42.502;26.526;2023-07-13T06:29:56;99814.13;;;27.98;100.00
20019;BME280;10170;42.502;26.526;2023-07-13T06:32:23;99818.06;;;28.40;100.00
20019;BME280;10170;42.502;26.526;2023-07-13T06:34:49;99814.31;;;28.10;100.00
20019;BME280;10170;42.502;26.526;2023-07-13T06:37:18;99803.78;;;28.43;100.00
20019;BME280;10170;42.502;26.526;2023-07-13T06:39:45;99806.56;;;28.68;100.00
20019;BME280;10170;42.502;26.526;2023-07-13T06:42:12;99810.13;;;28.94;100.00
20019;BME280;10170;42.502;26.526;2023-07-13T06:44:40;99809.66;;;29.18;100.00
20019;BME280;10170;42.502;26.526;2023-07-13T06:47:07;99809.63;;;29.35;100.00
20019;BME280;10170;42.502;26.526;2023-07-13T06:49:34;99805.44;;;29.38;100.00
20019;BME280;10170;42.502;26.526;2023-07-13T06:52:00;99798.81;;;29.04;100.00
20019;BME280;10170;42.502;26.526;2023-07-13T06:54:27;99806.72;;;29.06;100.00
20019;BME280;10170;42.502;26.526;2023-07-13T06:56:54;99801.09;;;29.20;100.00
20019;BME280;10170;42.502;26.526;2023-07-13T06:59:21;99793.97;;;29.36;100.00
20019;BME280;10170;42.502;26.526;2023-07-13T07:01:47;99788.34;;;29.87;100.00
20019;BME280;10170;42.502;26.526;2023-07-13T07:04:14;99780.06;;;29.49;100.00
20019;BME280;10170;42.502;26.526;2023-07-13T07:06:41;99782.69;;;30.21;100.00
20019;BME280;10170;42.502;26.526;2023-07-13T07:09:08;99783.34;;;30.18;100.00
20019;BME280;10170;42.502;26.526;2023-07-13T07:11:35;99787.75;;;30.60;100.00
20019;BME280;10170;42.502;26.526;2023-07-13T07:14:03;99792.63;;;30.84;100.00
20019;BME280;10170;42.502;26.526;2023-07-13T07:16:29;99796.22;;;30.96;100.00
20019;BME280;10170;42.502;26.526;2023-07-13T07:18:57;99805.59;;;31.16;100.00
20019;BME280;10170;42.502;26.526;2023-07-13T07:21:23;99800.22;;;30.78;100.00
20019;BME280;10170;42.502;26.526;2023-07-13T07:23:51;99789.44;;;30.73;100.00
20019;BME280;10170;42.502;26.526;2023-07-13T07:26:19;99803.78;;;30.58;100.00
20019;BME280;10170;42.502;26.526;2023-07-13T07:28:49;99795.09;;;30.97;100.00
20019;BME280;10170;42.502;26.526;2023-07-13T07:31:35;99801.19;;;30.82;100.00
20019;BME280;10170;42.502;26.526;2023-07-13T07:34:06;99797.97;;;31.34;100.00
20019;BME280;10170;42.502;26.526;2023-07-13T07:36:34;99796.22;;;30.96;100.00
20019;BME280;10170;42.502;26.526;2023-07-13T07:39:03;99793.94;;;30.98;100.00
20019;BME280;10170;42.502;26.526;2023-07-13T07:41:31;99796.75;;;31.11;100.00
20019;BME280;10170;42.502;26.526;2023-07-13T07:44:00;99800.00;;;31.57;100.00
20019;BME280;10170;42.502;26.526;2023-07-13T07:46:27;99797.56;;;31.88;100.00
20019;BME280;10170;42.502;26.526;2023-07-13T07:48:56;99799.88;;;32.11;100.00
20019;BME280;10170;42.502;26.526;2023-07-13T07:51:22;99797.88;;;32.59;100.00
20019;BME280;10170;42.502;26.526;2023-07-13T07:53:49;99790.69;;;32.19;100.00
20019;BME280;10170;42.502;26.526;2023-07-13T07:56:16;99791.50;;;32.07;100.00
20019;BME280;10170;42.502;26.526;2023-07-13T07:58:46;99795.03;;;32.32;100.00
20019;BME280;10170;42.502;26.526;2023-07-13T08:01:16;99778.00;;;32.66;100.00
20019;BME280;10170;42.502;26.526;2023-07-13T08:03:45;99792.56;;;33.06;95.54
20019;BME280;10170;42.502;26.526;2023-07-13T08:06:15;99775.94;;;33.02;94.48
20019;BME280;10170;42.502;26.526;2023-07-13T08:09:02;99799.94;;;33.30;89.86
20019;BME280;10170;42.502;26.526;2023-07-13T08:11:30;99776.75;;;33.03;91.15
20019;BME280;10170;42.502;26.526;2023-07-13T08:14:00;99787.66;;;32.99;91.67
20019;BME280;10170;42.502;26.526;2023-07-13T08:16:27;99787.41;;;32.65;94.75
20019;BME280;10170;42.502;26.526;2023-07-13T08:18:53;99775.47;;;33.00;91.66
20019;BME280;10170;42.502;26.526;2023-07-13T08:21:21;99775.09;;;33.14;91.24
20019;BME280;10170;42.502;26.526;2023-07-13T08:23:48;99779.09;;;33.44;87.64
20019;BME280;10170;42.502;26.526;2023-07-13T08:26:15;99768.22;;;33.67;84.47
20019;BME280;10170;42.502;26.526;2023-07-13T08:28:42;99773.81;;;33.12;86.62
20019;BME280;10170;42.502;26.526;2023-07-13T08:31:10;99774.84;;;32.79;94.97
20019;BME280;10170;42.502;26.526;2023-07-13T08:33:37;99757.84;;;32.89;89.13
20019;BME280;10170;42.502;26.526;2023-07-13T08:36:05;99761.31;;;33.57;84.62
20019;BME280;10170;42.502;26.526;2023-07-13T08:38:32;99744.13;;;33.48;81.72
20019;BME280;10170;42.502;26.526;2023-07-13T08:40:59;99768.88;;;33.45;79.96
20019;BME280;10170;42.502;26.526;2023-07-13T08:43:29;99774.03;;;34.09;76.74
20019;BME280;10170;42.502;26.526;2023-07-13T08:46:05;99766.81;;;34.73;72.92
20019;BME280;10170;42.502;26.526;2023-07-13T08:51:25;99763.47;;;34.64;71.74
20019;BME280;10170;42.502;26.526;2023-07-13T08:53:58;99755.63;;;34.85;70.77
20019;BME280;10170;42.502;26.526;2023-07-13T08:56:28;99761.81;;;35.17;68.24
20019;BME280;10170;42.502;26.526;2023-07-13T08:59:03;99760.13;;;35.13;69.07
20019;BME280;10170;42.502;26.526;2023-07-13T09:04:18;99760.44;;;35.72;66.60
20019;BME280;10170;42.502;26.526;2023-07-13T09:09:59;99758.69;;;35.19;66.68
20019;BME280;10170;42.502;26.526;2023-07-13T09:15:31;99766.56;;;36.07;64.29
20019;BME280;10170;42.502;26.526;2023-07-13T09:18:11;99746.81;;;35.41;63.38
20019;BME280;10170;42.502;26.526;2023-07-13T09:23:31;99737.25;;;36.32;60.54
20019;BME280;10170;42.502;26.526;2023-07-13T09:26:04;99751.66;;;36.41;58.92
20019;BME280;10170;42.502;26.526;2023-07-13T09:28:39;99749.28;;;37.03;56.25
20019;BME280;10170;42.502;26.526;2023-07-13T09:31:15;99747.63;;;36.94;53.88
20019;BME280;10170;42.502;26.526;2023-07-13T09:33:42;99733.63;;;37.21;52.30
20019;BME280;10170;42.502;26.526;2023-07-13T09:36:23;99735.47;;;37.90;51.01
20019;BME280;10170;42.502;26.526;2023-07-13T09:39:02;99733.63;;;37.21;51.07
20019;BME280;10170;42.502;26.526;2023-07-13T09:41:47;99734.94;;;37.30;50.69
20019;BME280;10170;42.502;26.526;2023-07-13T09:44:19;99722.63;;;37.28;49.35
20019;BME280;10170;42.502;26.526;2023-07-13T09:46:55;99687.31;;;36.55;49.67
20019;BME280;10170;42.502;26.526;2023-07-13T09:49:35;99709.25;;;37.40;49.77
20019;BME280;10170;42.502;26.526;2023-07-13T09:52:06;99714.53;;;37.56;49.01
20019;BME280;10170;42.502;26.526;2023-07-13T09:54:35;99713.31;;;36.76;48.04
20019;BME280;10170;42.502;26.526;2023-07-13T09:57:08;99709.69;;;36.72;48.04
20019;BME280;10170;42.502;26.526;2023-07-13T09:59:43;99705.19;;;36.90;50.03
20019;BME280;10170;42.502;26.526;2023-07-13T10:02:35;99706.69;;;36.84;49.68
20019;BME280;10170;42.502;26.526;2023-07-13T10:05:10;99685.59;;;37.53;49.24
20019;BME280;10170;42.502;26.526;2023-07-13T10:07:39;99685.53;;;37.46;48.70
20019;BME280;10170;42.502;26.526;2023-07-13T10:10:15;99681.66;;;36.81;48.31
20019;BME280;10170;42.502;26.526;2023-07-13T10:12:43;99677.84;;;37.73;46.24
20019;BME280;10170;42.502;26.526;2023-07-13T10:15:22;99675.63;;;38.03;45.16
20019;BME280;10170;42.502;26.526;2023-07-13T10:17:53;99681.22;;;38.07;44.09
20019;BME280;10170;42.502;26.526;2023-07-13T10:20:22;99672.34;;;37.83;44.86
20019;BME280;10170;42.502;26.526;2023-07-13T10:22:56;99664.69;;;37.70;44.03
20019;BME280;10170;42.502;26.526;2023-07-13T10:25:27;99660.31;;;37.69;42.23
20019;BME280;10170;42.502;26.526;2023-07-13T10:28:05;99663.94;;;37.73;40.57
20019;BME280;10170;42.502;26.526;2023-07-13T10:30:35;99660.69;;;38.18;41.89
20019;BME280;10170;42.502;26.526;2023-07-13T10:33:10;99653.75;;;38.80;39.61
20019;BME280;10170;42.502;26.526;2023-07-13T10:35:39;99645.81;;;38.68;39.95
20019;BME280;10170;42.502;26.526;2023-07-13T10:38:18;99658.44;;;38.52;40.31
20019;BME280;10170;42.502;26.526;2023-07-13T10:40:58;99660.91;;;38.85;39.18
20019;BME280;10170;42.502;26.526;2023-07-13T10:43:33;99646.28;;;39.34;40.91
20019;BME280;10170;42.502;26.526;2023-07-13T10:46:06;99631.13;;;38.96;40.46
20019;BME280;10170;42.502;26.526;2023-07-13T10:48:35;99635.56;;;39.50;39.11
20019;BME280;10170;42.502;26.526;2023-07-13T10:51:05;99633.91;;;38.92;40.09
20019;BME280;10170;42.502;26.526;2023-07-13T10:53:35;99638.97;;;38.59;39.82
20019;BME280;10170;42.502;26.526;2023-07-13T10:56:03;99624.78;;;38.95;39.79
20019;BME280;10170;42.502;26.526;2023-07-13T10:58:38;99631.19;;;39.21;40.22
20019;BME280;10170;42.502;26.526;2023-07-13T11:03:34;99635.13;;;38.95;40.59
20019;BME280;10170;42.502;26.526;2023-07-13T11:21:29;99633.16;;;39.66;39.40
20019;BME280;10170;42.502;26.526;2023-07-13T11:24:28;99635.53;;;39.74;39.59
20019;BME280;10170;42.502;26.526;2023-07-13T11:26:55;99625.59;;;39.63;39.46
20019;BME280;10170;42.502;26.526;2023-07-13T11:32:00;99626.81;;;39.20;39.20
20019;BME280;10170;42.502;26.526;2023-07-13T11:34:38;99613.69;;;39.55;38.89
20019;BME280;10170;42.502;26.526;2023-07-13T11:37:12;99619.25;;;39.34;39.48
20019;BME280;10170;42.502;26.526;2023-07-13T11:39:43;99612.50;;;39.49;38.85
20019;BME280;10170;42.502;26.526;2023-07-13T11:42:16;99611.22;;;39.82;38.25
20019;BME280;10170;42.502;26.526;2023-07-13T11:44:49;99610.03;;;39.90;38.00
20019;BME280;10170;42.502;26.526;2023-07-13T11:47:34;99602.72;;;40.31;37.01
20019;BME280;10170;42.502;26.526;2023-07-13T11:50:20;99603.00;;;40.58;36.53
20019;BME280;10170;42.502;26.526;2023-07-13T11:52:49;99606.81;;;40.06;37.37
20019;BME280;10170;42.502;26.526;2023-07-13T11:55:18;99606.91;;;39.46;38.31
20019;BME280;10170;42.502;26.526;2023-07-13T11:57:50;99601.72;;;39.76;37.81
20019;BME280;10170;42.502;26.526;2023-07-13T12:00:22;99610.69;;;40.36;37.04
20019;BME280;10170;42.502;26.526;2023-07-13T12:02:52;99610.59;;;40.50;36.33
20019;BME280;10170;42.502;26.526;2023-07-13T12:05:20;99601.66;;;40.83;35.34
20019;BME280;10170;42.502;26.526;2023-07-13T12:07:47;99612.25;;;41.57;34.54
20019;BME280;10170;42.502;26.526;2023-07-13T12:10:19;99608.91;;;41.69;36.02
20019;BME280;10170;42.502;26.526;2023-07-13T12:13:08;99602.00;;;41.81;34.76
20019;BME280;10170;42.502;26.526;2023-07-13T12:15:45;99598.81;;;41.82;34.84
20019;BME280;10170;42.502;26.526;2023-07-13T12:18:14;99592.88;;;41.77;35.69
20019;BME280;10170;42.502;26.526;2023-07-13T12:20:42;99599.19;;;42.48;33.87
20019;BME280;10170;42.502;26.526;2023-07-13T12:23:31;99588.94;;;41.71;34.60
20019;BME280;10170;42.502;26.526;2023-07-13T12:26:01;99589.31;;;41.29;34.52
20019;BME280;10170;42.502;26.526;2023-07-13T12:28:37;99583.56;;;40.44;35.28
20019;BME280;10170;42.502;26.526;2023-07-13T12:31:07;99578.69;;;40.58;35.18
20019;BME280;10170;42.502;26.526;2023-07-13T12:33:46;99575.13;;;41.09;35.74
20019;BME280;10170;42.502;26.526;2023-07-13T12:36:13;99567.66;;;40.96;34.82
20019;BME280;10170;42.502;26.526;2023-07-13T12:38:40;99564.22;;;41.25;34.91
20019;BME280;10170;42.502;26.526;2023-07-13T12:41:08;99553.78;;;40.16;35.38
20019;BME280;10170;42.502;26.526;2023-07-13T12:43:36;99541.56;;;40.65;35.62
20019;BME280;10170;42.502;26.526;2023-07-13T12:46:18;99549.47;;;41.28;35.15
20019;BME280;10170;42.502;26.526;2023-07-13T12:48:52;99543.47;;;41.30;34.75
20019;BME280;10170;42.502;26.526;2023-07-13T12:51:38;99537.63;;;41.51;35.63
20019;BME280;10170;42.502;26.526;2023-07-13T12:54:15;99530.88;;;42.46;34.20
20019;BME280;10170;42.502;26.526;2023-07-13T12:56:43;99533.25;;;42.47;33.42
20019;BME280;10170;42.502;26.526;2023-07-13T12:59:17;99528.44;;;42.74;33.62
20019;BME280;10170;42.502;26.526;2023-07-13T13:01:46;99521.56;;;42.56;34.34
20019;BME280;10170;42.502;26.526;2023-07-13T13:04:13;99506.28;;;42.07;34.75
20019;BME280;10170;42.502;26.526;2023-07-13T13:06:40;99516.16;;;42.68;33.97
20019;BME280;10170;42.502;26.526;2023-07-13T13:09:13;99515.53;;;43.69;32.26
20019;BME280;10170;42.502;26.526;2023-07-13T13:11:40;99511.00;;;43.13;32.90
20019;BME280;10170;42.502;26.526;2023-07-13T13:14:08;99506.44;;;43.00;33.12
20019;BME280;10170;42.502;26.526;2023-07-13T13:16:43;99501.94;;;43.29;32.48
20019;BME280;10170;42.502;26.526;2023-07-13T13:21:44;99508.06;;;44.38;30.27
20019;BME280;10170;42.502;26.526;2023-07-13T13:24:18;99503.47;;;44.79;30.42
20019;BME280;10170;42.502;26.526;2023-07-13T13:26:47;99506.94;;;45.60;29.91
20019;BME280;10170;42.502;26.526;2023-07-13T13:29:16;99507.91;;;44.93;30.22
20019;BME280;10170;42.502;26.526;2023-07-13T13:31:43;99509.06;;;45.12;30.41
20019;BME280;10170;42.502;26.526;2023-07-13T13:34:12;99521.75;;;44.36;31.57
20019;BME280;10170;42.502;26.526;2023-07-13T13:36:41;99501.94;;;44.07;31.83